sensor_id;sensor_type;location;lat;lon;timestamp;P1;durP1;ratioP1;P2;durP2;ratioP2
6346;SDS011;3206;42.666;23.600;2023-10-13T00:00:46;0.50;;;0.50;;
6346;SDS011;3206;42.666;23.600;2023-10-13T00:03:13;0.50;;;0.50;;
6346;SDS011;3206;42.666;23.600;2023-10-13T00:05:41;0.60;;;0.60;;
6346;SDS011;3206;42.666;23.600;2023-10-13T00:08:08;0.50;;;0.50;;
6346;SDS011;3206;42.666;23.600;2023-10-13T00:10:36;0.43;;;0.43;;
6346;SDS011;3206;42.666;23.600;2023-10-13T00:13:02;0.67;;;0.67;;
6346;SDS011;3206;42.666;23.600;2023-10-13T00:15:38;0.43;;;0.43;;
6346;SDS011;3206;42.666;23.600;2023-10-13T00:18:09;0.73;;;0.73;;
6346;SDS011;3206;42.666;23.600;2023-10-13T00:20:39;0.70;;;0.70;;
6346;SDS011;3206;42.666;23.600;2023-10-13T00:23:05;1.00;;;1.00;;
6346;SDS011;3206;42.666;23.600;2023-10-13T00:25:32;1.13;;;0.60;;
6346;SDS011;3206;42.666;23.600;2023-10-13T00:28:09;0.87;;;0.87;;
6346;SDS011;3206;42.666;23.600;2023-10-13T00:30:36;0.80;;;0.80;;
6346;SDS011;3206;42.666;23.600;2023-10-13T00:33:03;0.97;;;0.97;;
6346;SDS011;3206;42.666;23.600;2023-10-13T00:35:30;0.50;;;0.50;;
6346;SDS011;3206;42.666;23.600;2023-10-13T00:38:01;0.90;;;0.90;;
6346;SDS011;3206;42.666;23.600;2023-10-13T00:40:37;0.40;;;0.40;;
6346;SDS011;3206;42.666;23.600;2023-10-13T00:43:10;1.70;;;1.60;;
6346;SDS011;3206;42.666;23.600;2023-10-13T00:45:58;1.07;;;1.00;;
6346;SDS011;3206;42.666;23.600;2023-10-13T00:48:33;0.40;;;0.40;;
6346;SDS011;3206;42.666;23.600;2023-10-13T00:51:00;1.07;;;1.07;;
6346;SDS011;3206;42.666;23.600;2023-10-13T00:53:28;0.63;;;0.63;;
6346;SDS011;3206;42.666;23.600;2023-10-13T00:55:55;0.43;;;0.43;;
6346;SDS011;3206;42.666;23.600;2023-10-13T00:58:22;0.80;;;0.80;;
6346;SDS011;3206;42.666;23.600;2023-10-13T01:00:50;0.50;;;0.50;;
6346;SDS011;3206;42.666;23.600;2023-10-13T01:03:22;0.60;;;0.60;;
6346;SDS011;3206;42.666;23.600;2023-10-13T01:05:51;0.80;;;0.80;;
6346;SDS011;3206;42.666;23.600;2023-10-13T01:08:19;0.60;;;0.60;;
6346;SDS011;3206;42.666;23.600;2023-10-13T01:10:48;0.73;;;0.73;;
6346;SDS011;3206;42.666;23.600;2023-10-13T01:13:14;0.60;;;0.60;;
6346;SDS011;3206;42.666;23.600;2023-10-13T01:15:43;1.47;;;1.13;;
6346;SDS011;3206;42.666;23.600;2023-10-13T01:18:12;0.80;;;0.80;;
6346;SDS011;3206;42.666;23.600;2023-10-13T01:20:39;0.60;;;0.60;;
6346;SDS011;3206;42.666;23.600;2023-10-13T01:23:12;1.17;;;1.07;;
6346;SDS011;3206;42.666;23.600;2023-10-13T01:25:43;0.60;;;0.60;;
6346;SDS011;3206;42.666;23.600;2023-10-13T01:28:09;0.60;;;0.60;;
6346;SDS011;3206;42.666;23.600;2023-10-13T01:30:36;0.93;;;0.93;;
6346;SDS011;3206;42.666;23.600;2023-10-13T01:33:04;0.77;;;0.77;;
6346;SDS011;3206;42.666;23.600;2023-10-13T01:35:30;0.53;;;0.53;;
6346;SDS011;3206;42.666;23.600;2023-10-13T01:38:07;0.30;;;0.30;;
6346;SDS011;3206;42.666;23.600;2023-10-13T01:40:34;0.60;;;0.60;;
6346;SDS011;3206;42.666;23.600;2023-10-13T01:43:00;0.70;;;0.70;;
6346;SDS011;3206;42.666;23.600;2023-10-13T01:45:26;0.47;;;0.47;;
6346;SDS011;3206;42.666;23.600;2023-10-13T01:47:54;0.60;;;0.60;;
6346;SDS011;3206;42.666;23.600;2023-10-13T01:50:20;0.50;;;0.50;;
6346;SDS011;3206;42.666;23.600;2023-10-13T01:52:52;0.40;;;0.40;;
6346;SDS011;3206;42.666;23.600;2023-10-13T01:55:25;0.77;;;0.77;;
6346;SDS011;3206;42.666;23.600;2023-10-13T01:57:51;0.97;;;0.97;;
6346;SDS011;3206;42.666;23.600;2023-10-13T02:00:19;0.50;;;0.50;;
6346;SDS011;3206;42.666;23.600;2023-10-13T02:02:45;1.10;;;1.10;;
6346;SDS011;3206;42.666;23.600;2023-10-13T02:05:15;0.47;;;0.47;;
6346;SDS011;3206;42.666;23.600;2023-10-13T02:07:42;0.80;;;0.80;;
6346;SDS011;3206;42.666;23.600;2023-10-13T02:10:10;0.53;;;0.53;;
6346;SDS011;3206;42.666;23.600;2023-10-13T02:12:37;0.60;;;0.60;;
6346;SDS011;3206;42.666;23.600;2023-10-13T02:15:09;0.40;;;0.40;;
6346;SDS011;3206;42.666;23.600;2023-10-13T02:17:37;0.50;;;0.50;;
6346;SDS011;3206;42.666;23.600;2023-10-13T02:20:07;0.60;;;0.60;;
6346;SDS011;3206;42.666;23.600;2023-10-13T02:22:33;0.90;;;0.90;;
6346;SDS011;3206;42.666;23.600;2023-10-13T02:25:02;0.60;;;0.60;;
6346;SDS011;3206;42.666;23.600;2023-10-13T02:27:32;0.60;;;0.60;;
6346;SDS011;3206;42.666;23.600;2023-10-13T02:30:06;0.53;;;0.53;;
6346;SDS011;3206;42.666;23.600;2023-10-13T02:32:33;0.47;;;0.47;;
6346;SDS011;3206;42.666;23.600;2023-10-13T02:35:05;0.80;;;0.80;;
6346;SDS011;3206;42.666;23.600;2023-10-13T02:37:34;0.47;;;0.47;;
6346;SDS011;3206;42.666;23.600;2023-10-13T02:40:01;1.30;;;1.20;;
6346;SDS011;3206;42.666;23.600;2023-10-13T02:42:26;0.63;;;0.63;;
6346;SDS011;3206;42.666;23.600;2023-10-13T02:44:52;0.73;;;0.73;;
6346;SDS011;3206;42.666;23.600;2023-10-13T02:47:21;0.60;;;0.60;;
6346;SDS011;3206;42.666;23.600;2023-10-13T02:49:50;0.63;;;0.63;;
6346;SDS011;3206;42.666;23.600;2023-10-13T02:52:16;0.90;;;0.90;;
6346;SDS011;3206;42.666;23.600;2023-10-13T02:54:42;0.53;;;0.53;;
6346;SDS011;3206;42.666;23.600;2023-10-13T02:57:12;0.50;;;0.50;;
6346;SDS011;3206;42.666;23.600;2023-10-13T02:59:41;0.73;;;0.73;;
6346;SDS011;3206;42.666;23.600;2023-10-13T03:02:11;0.50;;;0.50;;
6346;SDS011;3206;42.666;23.600;2023-10-13T03:04:49;0.60;;;0.60;;
6346;SDS011;3206;42.666;23.600;2023-10-13T03:07:15;1.50;;;1.03;;
6346;SDS011;3206;42.666;23.600;2023-10-13T03:09:47;0.60;;;0.60;;
6346;SDS011;3206;42.666;23.600;2023-10-13T03:12:19;1.33;;;1.23;;
6346;SDS011;3206;42.666;23.600;2023-10-13T03:14:49;0.57;;;0.57;;
6346;SDS011;3206;42.666;23.600;2023-10-13T03:17:20;0.97;;;0.97;;
6346;SDS011;3206;42.666;23.600;2023-10-13T03:19:58;0.80;;;0.80;;
6346;SDS011;3206;42.666;23.600;2023-10-13T03:22:25;0.93;;;0.93;;
6346;SDS011;3206;42.666;23.600;2023-10-13T03:24:56;0.40;;;0.40;;
6346;SDS011;3206;42.666;23.600;2023-10-13T03:27:25;1.03;;;1.03;;
6346;SDS011;3206;42.666;23.600;2023-10-13T03:30:05;0.70;;;0.70;;
6346;SDS011;3206;42.666;23.600;2023-10-13T03:32:36;1.00;;;1.00;;
6346;SDS011;3206;42.666;23.600;2023-10-13T03:35:08;0.90;;;0.90;;
6346;SDS011;3206;42.666;23.600;2023-10-13T03:37:40;0.93;;;0.93;;
6346;SDS011;3206;42.666;23.600;2023-10-13T03:40:07;0.63;;;0.63;;
6346;SDS011;3206;42.666;23.600;2023-10-13T03:42:56;0.40;;;0.40;;
6346;SDS011;3206;42.666;23.600;2023-10-13T03:45:25;0.80;;;0.80;;
6346;SDS011;3206;42.666;23.600;2023-10-13T03:47:51;1.00;;;1.00;;
6346;SDS011;3206;42.666;23.600;2023-10-13T03:50:18;1.47;;;1.03;;
6346;SDS011;3206;42.666;23.600;2023-10-13T03:52:55;1.13;;;1.13;;
6346;SDS011;3206;42.666;23.600;2023-10-13T03:55:23;0.43;;;0.43;;
6346;SDS011;3206;42.666;23.600;2023-10-13T03:57:52;1.20;;;1.20;;
6346;SDS011;3206;42.666;23.600;2023-10-13T04:00:19;0.63;;;0.63;;
6346;SDS011;3206;42.666;23.600;2023-10-13T04:02:49;1.10;;;1.10;;
6346;SDS011;3206;42.666;23.600;2023-10-13T04:05:28;0.60;;;0.60;;
6346;SDS011;3206;42.666;23.600;2023-10-13T04:08:05;0.70;;;0.70;;
6346;SDS011;3206;42.666;23.600;2023-10-13T04:10:55;1.00;;;1.00;;
6346;SDS011;3206;42.666;23.600;2023-10-13T04:13:39;0.40;;;0.40;;
6346;SDS011;3206;42.666;23.600;2023-10-13T04:16:23;0.57;;;0.57;;
6346;SDS011;3206;42.666;23.600;2023-10-13T04:19:03;0.70;;;0.70;;
6346;SDS011;3206;42.666;23.600;2023-10-13T04:21:44;0.77;;;0.77;;
6346;SDS011;3206;42.666;23.600;2023-10-13T04:24:24;0.70;;;0.70;;
6346;SDS011;3206;42.666;23.600;2023-10-13T04:27:05;0.90;;;0.90;;
6346;SDS011;3206;42.666;23.600;2023-10-13T04:29:48;1.00;;;1.00;;
6346;SDS011;3206;42.666;23.600;2023-10-13T04:32:22;0.60;;;0.60;;
6346;SDS011;3206;42.666;23.600;2023-10-13T04:35:03;1.07;;;0.97;;
6346;SDS011;3206;42.666;23.600;2023-10-13T04:37:35;1.70;;;1.37;;
6346;SDS011;3206;42.666;23.600;2023-10-13T04:40:17;1.90;;;1.77;;
6346;SDS011;3206;42.666;23.600;2023-10-13T04:42:44;0.50;;;0.50;;
6346;SDS011;3206;42.666;23.600;2023-10-13T04:45:16;0.80;;;0.80;;
6346;SDS011;3206;42.666;23.600;2023-10-13T04:48:03;0.50;;;0.50;;
6346;SDS011;3206;42.666;23.600;2023-10-13T04:50:39;1.03;;;1.03;;
6346;SDS011;3206;42.666;23.600;2023-10-13T04:53:10;0.70;;;0.70;;
6346;SDS011;3206;42.666;23.600;2023-10-13T04:55:54;0.60;;;0.60;;
6346;SDS011;3206;42.666;23.600;2023-10-13T04:58:33;0.87;;;0.87;;
6346;SDS011;3206;42.666;23.600;2023-10-13T05:01:31;0.70;;;0.70;;
6346;SDS011;3206;42.666;23.600;2023-10-13T05:04:15;1.07;;;1.07;;
6346;SDS011;3206;42.666;23.600;2023-10-13T05:06:55;0.90;;;0.90;;
6346;SDS011;3206;42.666;23.600;2023-10-13T05:09:39;0.83;;;0.83;;
6346;SDS011;3206;42.666;23.600;2023-10-13T05:12:24;1.93;;;1.40;;
6346;SDS011;3206;42.666;23.600;2023-10-13T05:15:08;0.67;;;0.67;;
6346;SDS011;3206;42.666;23.600;2023-10-13T05:18:01;1.43;;;0.93;;
6346;SDS011;3206;42.666;23.600;2023-10-13T05:20:44;0.60;;;0.60;;
6346;SDS011;3206;42.666;23.600;2023-10-13T05:23:33;0.50;;;0.50;;
6346;SDS011;3206;42.666;23.600;2023-10-13T05:26:17;0.80;;;0.80;;
6346;SDS011;3206;42.666;23.600;2023-10-13T05:29:02;1.00;;;0.93;;
6346;SDS011;3206;42.666;23.600;2023-10-13T05:31:46;0.70;;;0.70;;
6346;SDS011;3206;42.666;23.600;2023-10-13T05:34:30;0.60;;;0.60;;
6346;SDS011;3206;42.666;23.600;2023-10-13T05:37:13;1.00;;;1.00;;
6346;SDS011;3206;42.666;23.600;2023-10-13T05:39:57;0.97;;;0.97;;
6346;SDS011;3206;42.666;23.600;2023-10-13T05:42:49;0.97;;;0.97;;
6346;SDS011;3206;42.666;23.600;2023-10-13T05:45:43;0.60;;;0.60;;
6346;SDS011;3206;42.666;23.600;2023-10-13T05:48:23;1.47;;;1.37;;
6346;SDS011;3206;42.666;23.600;2023-10-13T05:51:06;1.20;;;1.20;;
6346;SDS011;3206;42.666;23.600;2023-10-13T05:53:50;1.00;;;1.00;;
6346;SDS011;3206;42.666;23.600;2023-10-13T05:56:34;1.43;;;1.33;;
6346;SDS011;3206;42.666;23.600;2023-10-13T05:59:18;2.10;;;2.00;;
6346;SDS011;3206;42.666;23.600;2023-10-13T06:02:04;2.93;;;1.67;;
6346;SDS011;3206;42.666;23.600;2023-10-13T06:04:48;3.07;;;2.03;;
6346;SDS011;3206;42.666;23.600;2023-10-13T06:07:32;2.20;;;2.00;;
6346;SDS011;3206;42.666;23.600;2023-10-13T06:10:16;1.88;;;1.42;;
6346;SDS011;3206;42.666;23.600;2023-10-13T06:13:00;1.90;;;1.80;;
6346;SDS011;3206;42.666;23.600;2023-10-13T06:15:43;1.50;;;1.40;;
6346;SDS011;3206;42.666;23.600;2023-10-13T06:18:28;1.30;;;1.30;;
6346;SDS011;3206;42.666;23.600;2023-10-13T06:21:12;1.83;;;1.73;;
6346;SDS011;3206;42.666;23.600;2023-10-13T06:24:10;0.87;;;0.87;;
6346;SDS011;3206;42.666;23.600;2023-10-13T06:26:54;1.10;;;1.10;;
6346;SDS011;3206;42.666;23.600;2023-10-13T06:29:38;1.07;;;1.07;;
6346;SDS011;3206;42.666;23.600;2023-10-13T06:32:05;1.13;;;1.13;;
6346;SDS011;3206;42.666;23.600;2023-10-13T06:34:37;0.83;;;0.83;;
6346;SDS011;3206;42.666;23.600;2023-10-13T06:37:07;0.90;;;0.90;;
6346;SDS011;3206;42.666;23.600;2023-10-13T06:39:47;0.63;;;0.63;;
6346;SDS011;3206;42.666;23.600;2023-10-13T06:42:14;1.23;;;1.13;;
6346;SDS011;3206;42.666;23.600;2023-10-13T06:44:41;0.90;;;0.90;;
6346;SDS011;3206;42.666;23.600;2023-10-13T06:47:10;1.83;;;1.23;;
6346;SDS011;3206;42.666;23.600;2023-10-13T06:49:38;1.30;;;1.30;;
6346;SDS011;3206;42.666;23.600;2023-10-13T06:52:08;32.13;;;1.13;;
6346;SDS011;3206;42.666;23.600;2023-10-13T06:54:34;1.80;;;1.70;;
6346;SDS011;3206;42.666;23.600;2023-10-13T06:57:02;1.23;;;0.97;;
6346;SDS011;3206;42.666;23.600;2023-10-13T06:59:31;3.93;;;2.47;;
6346;SDS011;3206;42.666;23.600;2023-10-13T07:02:01;1.13;;;1.03;;
6346;SDS011;3206;42.666;23.600;2023-10-13T07:04:30;1.57;;;1.13;;
6346;SDS011;3206;42.666;23.600;2023-10-13T07:06:58;1.43;;;1.43;;
6346;SDS011;3206;42.666;23.600;2023-10-13T07:09:25;8.97;;;1.53;;
6346;SDS011;3206;42.666;23.600;2023-10-13T07:12:05;1.90;;;1.80;;
6346;SDS011;3206;42.666;23.600;2023-10-13T07:14:32;6.88;;;3.42;;
6346;SDS011;3206;42.666;23.600;2023-10-13T07:17:00;5.97;;;1.80;;
6346;SDS011;3206;42.666;23.600;2023-10-13T07:19:28;1.00;;;1.00;;
6346;SDS011;3206;42.666;23.600;2023-10-13T07:21:54;1.23;;;1.23;;
6346;SDS011;3206;42.666;23.600;2023-10-13T07:24:25;2.03;;;1.90;;
6346;SDS011;3206;42.666;23.600;2023-10-13T07:26:55;1.67;;;1.53;;
6346;SDS011;3206;42.666;23.600;2023-10-13T07:29:28;1.90;;;1.80;;
6346;SDS011;3206;42.666;23.600;2023-10-13T07:31:55;1.20;;;1.20;;
6346;SDS011;3206;42.666;23.600;2023-10-13T07:34:21;12.45;;;1.88;;
6346;SDS011;3206;42.666;23.600;2023-10-13T07:36:54;3.30;;;1.93;;
6346;SDS011;3206;42.666;23.600;2023-10-13T07:39:25;2.30;;;2.05;;
6346;SDS011;3206;42.666;23.600;2023-10-13T07:41:53;2.22;;;1.85;;
6346;SDS011;3206;42.666;23.600;2023-10-13T07:44:28;1.58;;;1.50;;
6346;SDS011;3206;42.666;23.600;2023-10-13T07:46:57;2.05;;;1.95;;
6346;SDS011;3206;42.666;23.600;2023-10-13T07:49:28;2.15;;;2.05;;
6346;SDS011;3206;42.666;23.600;2023-10-13T07:51:57;1.20;;;1.20;;
6346;SDS011;3206;42.666;23.600;2023-10-13T07:54:27;1.45;;;1.35;;
6346;SDS011;3206;42.666;23.600;2023-10-13T07:56:53;1.83;;;1.75;;
6346;SDS011;3206;42.666;23.600;2023-10-13T07:59:21;4.03;;;3.22;;
6346;SDS011;3206;42.666;23.600;2023-10-13T08:01:49;2.25;;;2.00;;
6346;SDS011;3206;42.666;23.600;2023-10-13T08:04:37;1.63;;;1.52;;
6346;SDS011;3206;42.666;23.600;2023-10-13T08:07:03;3.35;;;2.78;;
6346;SDS011;3206;42.666;23.600;2023-10-13T08:09:39;2.17;;;1.98;;
6346;SDS011;3206;42.666;23.600;2023-10-13T08:12:06;1.58;;;1.48;;
6346;SDS011;3206;42.666;23.600;2023-10-13T08:14:36;1.88;;;1.42;;
6346;SDS011;3206;42.666;23.600;2023-10-13T08:17:04;3.67;;;2.17;;
6346;SDS011;3206;42.666;23.600;2023-10-13T08:19:32;1.83;;;1.73;;
6346;SDS011;3206;42.666;23.600;2023-10-13T08:22:07;3.00;;;1.80;;
6346;SDS011;3206;42.666;23.600;2023-10-13T08:24:53;1.55;;;1.42;;
6346;SDS011;3206;42.666;23.600;2023-10-13T08:27:40;4.65;;;2.38;;
6346;SDS011;3206;42.666;23.600;2023-10-13T08:30:14;1.10;;;1.10;;
6346;SDS011;3206;42.666;23.600;2023-10-13T08:32:54;0.95;;;0.95;;
6346;SDS011;3206;42.666;23.600;2023-10-13T08:35:22;3.03;;;2.07;;
6346;SDS011;3206;42.666;23.600;2023-10-13T08:37:48;2.80;;;2.13;;
6346;SDS011;3206;42.666;23.600;2023-10-13T08:40:27;1.90;;;1.80;;
6346;SDS011;3206;42.666;23.600;2023-10-13T08:43:20;3.50;;;2.70;;
6346;SDS011;3206;42.666;23.600;2023-10-13T08:45:48;2.80;;;2.00;;
6346;SDS011;3206;42.666;23.600;2023-10-13T08:48:24;1.83;;;1.67;;
6346;SDS011;3206;42.666;23.600;2023-10-13T08:50:57;2.47;;;1.95;;
6346;SDS011;3206;42.666;23.600;2023-10-13T08:53:31;3.95;;;1.75;;
6346;SDS011;3206;42.666;23.600;2023-10-13T08:55:59;2.03;;;1.65;;
6346;SDS011;3206;42.666;23.600;2023-10-13T08:58:34;2.88;;;2.60;;
6346;SDS011;3206;42.666;23.600;2023-10-13T09:01:30;1.38;;;1.38;;
6346;SDS011;3206;42.666;23.600;2023-10-13T09:04:00;1.90;;;1.80;;
6346;SDS011;3206;42.666;23.600;2023-10-13T09:06:41;3.10;;;2.83;;
6346;SDS011;3206;42.666;23.600;2023-10-13T09:09:12;3.05;;;2.75;;
6346;SDS011;3206;42.666;23.600;2023-10-13T09:11:51;5.68;;;3.13;;
6346;SDS011;3206;42.666;23.600;2023-10-13T09:14:31;7.20;;;2.60;;
6346;SDS011;3206;42.666;23.600;2023-10-13T09:17:05;3.63;;;2.03;;
6346;SDS011;3206;42.666;23.600;2023-10-13T09:19:46;3.78;;;2.45;;
6346;SDS011;3206;42.666;23.600;2023-10-13T09:22:21;3.40;;;2.88;;
6346;SDS011;3206;42.666;23.600;2023-10-13T09:24:51;5.80;;;3.22;;
6346;SDS011;3206;42.666;23.600;2023-10-13T09:27:17;6.40;;;3.50;;
6346;SDS011;3206;42.666;23.600;2023-10-13T09:29:44;2.70;;;2.00;;
6346;SDS011;3206;42.666;23.600;2023-10-13T09:32:20;4.22;;;2.58;;
6346;SDS011;3206;42.666;23.600;2023-10-13T09:34:46;4.65;;;3.08;;
6346;SDS011;3206;42.666;23.600;2023-10-13T09:37:16;3.63;;;2.00;;
6346;SDS011;3206;42.666;23.600;2023-10-13T09:39:46;3.50;;;3.10;;
6346;SDS011;3206;42.666;23.600;2023-10-13T09:42:13;4.85;;;3.13;;
6346;SDS011;3206;42.666;23.600;2023-10-13T09:44:44;3.78;;;2.65;;
6346;SDS011;3206;42.666;23.600;2023-10-13T09:47:16;11.30;;;3.40;;
6346;SDS011;3206;42.666;23.600;2023-10-13T09:49:47;7.10;;;3.10;;
6346;SDS011;3206;42.666;23.600;2023-10-13T09:52:14;3.90;;;2.47;;
6346;SDS011;3206;42.666;23.600;2023-10-13T09:54:47;3.35;;;2.58;;
6346;SDS011;3206;42.666;23.600;2023-10-13T09:57:15;2.65;;;2.05;;
6346;SDS011;3206;42.666;23.600;2023-10-13T09:59:46;4.18;;;2.35;;
6346;SDS011;3206;42.666;23.600;2023-10-13T10:02:17;4.38;;;3.15;;
6346;SDS011;3206;42.666;23.600;2023-10-13T10:04:50;3.67;;;2.88;;
6346;SDS011;3206;42.666;23.600;2023-10-13T10:07:23;2.97;;;2.50;;
6346;SDS011;3206;42.666;23.600;2023-10-13T10:09:55;3.13;;;2.80;;
6346;SDS011;3206;42.666;23.600;2023-10-13T10:12:24;4.75;;;3.15;;
6346;SDS011;3206;42.666;23.600;2023-10-13T10:15:09;3.35;;;3.03;;
6346;SDS011;3206;42.666;23.600;2023-10-13T10:17:39;3.40;;;2.85;;
6346;SDS011;3206;42.666;23.600;2023-10-13T10:20:06;11.00;;;3.63;;
6346;SDS011;3206;42.666;23.600;2023-10-13T10:22:40;8.32;;;4.53;;
6346;SDS011;3206;42.666;23.600;2023-10-13T10:25:11;3.45;;;3.08;;
6346;SDS011;3206;42.666;23.600;2023-10-13T10:27:54;8.57;;;4.20;;
6346;SDS011;3206;42.666;23.600;2023-10-13T10:30:25;4.60;;;2.70;;
6346;SDS011;3206;42.666;23.600;2023-10-13T10:32:54;3.78;;;2.78;;
6346;SDS011;3206;42.666;23.600;2023-10-13T10:35:24;2.67;;;1.83;;
6346;SDS011;3206;42.666;23.600;2023-10-13T10:37:51;5.85;;;3.25;;
6346;SDS011;3206;42.666;23.600;2023-10-13T10:40:18;5.55;;;3.30;;
6346;SDS011;3206;42.666;23.600;2023-10-13T10:43:11;6.82;;;3.85;;
6346;SDS011;3206;42.666;23.600;2023-10-13T10:45:46;4.65;;;3.30;;
6346;SDS011;3206;42.666;23.600;2023-10-13T10:48:14;3.80;;;2.42;;
6346;SDS011;3206;42.666;23.600;2023-10-13T10:50:45;9.43;;;3.72;;
6346;SDS011;3206;42.666;23.600;2023-10-13T10:53:18;4.45;;;2.60;;
6346;SDS011;3206;42.666;23.600;2023-10-13T10:55:47;8.55;;;3.78;;
6346;SDS011;3206;42.666;23.600;2023-10-13T10:58:13;3.88;;;2.38;;
6346;SDS011;3206;42.666;23.600;2023-10-13T11:01:05;5.35;;;2.28;;
6346;SDS011;3206;42.666;23.600;2023-10-13T11:03:35;6.75;;;2.85;;
6346;SDS011;3206;42.666;23.600;2023-10-13T11:06:03;10.40;;;3.92;;
6346;SDS011;3206;42.666;23.600;2023-10-13T11:08:30;5.25;;;2.80;;
6346;SDS011;3206;42.666;23.600;2023-10-13T11:10:57;7.93;;;3.67;;
6346;SDS011;3206;42.666;23.600;2023-10-13T11:13:25;9.85;;;2.95;;
6346;SDS011;3206;42.666;23.600;2023-10-13T11:15:55;5.82;;;3.10;;
6346;SDS011;3206;42.666;23.600;2023-10-13T11:18:30;3.30;;;2.15;;
6346;SDS011;3206;42.666;23.600;2023-10-13T11:21:03;4.85;;;2.35;;
6346;SDS011;3206;42.666;23.600;2023-10-13T11:23:32;5.07;;;2.60;;
6346;SDS011;3206;42.666;23.600;2023-10-13T11:26:01;11.68;;;2.53;;
6346;SDS011;3206;42.666;23.600;2023-10-13T11:28:29;9.40;;;3.28;;
6346;SDS011;3206;42.666;23.600;2023-10-13T11:30:57;4.68;;;2.42;;
6346;SDS011;3206;42.666;23.600;2023-10-13T11:33:24;3.00;;;1.98;;
6346;SDS011;3206;42.666;23.600;2023-10-13T11:35:54;4.05;;;2.58;;
6346;SDS011;3206;42.666;23.600;2023-10-13T11:38:26;5.05;;;1.85;;
6346;SDS011;3206;42.666;23.600;2023-10-13T11:40:55;4.80;;;1.95;;
6346;SDS011;3206;42.666;23.600;2023-10-13T11:43:42;7.38;;;2.72;;
6346;SDS011;3206;42.666;23.600;2023-10-13T11:46:26;2.53;;;1.98;;
6346;SDS011;3206;42.666;23.600;2023-10-13T11:49:19;2.78;;;2.10;;
6346;SDS011;3206;42.666;23.600;2023-10-13T11:51:58;2.63;;;1.98;;
6346;SDS011;3206;42.666;23.600;2023-10-13T11:54:35;5.22;;;1.90;;
6346;SDS011;3206;42.666;23.600;2023-10-13T11:57:06;3.83;;;2.40;;
6346;SDS011;3206;42.666;23.600;2023-10-13T11:59:33;4.03;;;2.63;;
6346;SDS011;3206;42.666;23.600;2023-10-13T12:02:01;5.38;;;3.05;;
6346;SDS011;3206;42.666;23.600;2023-10-13T12:04:45;3.03;;;1.65;;
6346;SDS011;3206;42.666;23.600;2023-10-13T12:07:18;6.05;;;2.75;;
6346;SDS011;3206;42.666;23.600;2023-10-13T12:09:45;5.20;;;2.20;;
6346;SDS011;3206;42.666;23.600;2023-10-13T12:12:28;6.22;;;3.17;;
6346;SDS011;3206;42.666;23.600;2023-10-13T12:14:55;3.30;;;2.08;;
6346;SDS011;3206;42.666;23.600;2023-10-13T12:17:22;3.80;;;2.05;;
6346;SDS011;3206;42.666;23.600;2023-10-13T12:19:53;4.20;;;2.10;;
6346;SDS011;3206;42.666;23.600;2023-10-13T12:22:20;3.13;;;1.80;;
6346;SDS011;3206;42.666;23.600;2023-10-13T12:24:53;4.70;;;2.33;;
6346;SDS011;3206;42.666;23.600;2023-10-13T12:27:19;7.82;;;2.55;;
6346;SDS011;3206;42.666;23.600;2023-10-13T12:29:48;3.05;;;1.85;;
6346;SDS011;3206;42.666;23.600;2023-10-13T12:32:16;1.77;;;1.38;;
6346;SDS011;3206;42.666;23.600;2023-10-13T12:34:47;6.72;;;2.95;;
6346;SDS011;3206;42.666;23.600;2023-10-13T12:37:27;2.00;;;1.55;;
6346;SDS011;3206;42.666;23.600;2023-10-13T12:40:15;2.70;;;1.90;;
6346;SDS011;3206;42.666;23.600;2023-10-13T12:42:59;3.92;;;2.05;;
6346;SDS011;3206;42.666;23.600;2023-10-13T12:45:45;4.28;;;2.20;;
6346;SDS011;3206;42.666;23.600;2023-10-13T12:48:29;5.00;;;2.72;;
6346;SDS011;3206;42.666;23.600;2023-10-13T12:51:13;1.77;;;1.45;;
6346;SDS011;3206;42.666;23.600;2023-10-13T12:53:47;5.30;;;2.72;;
6346;SDS011;3206;42.666;23.600;2023-10-13T12:56:14;4.13;;;1.83;;
6346;SDS011;3206;42.666;23.600;2023-10-13T12:58:40;2.33;;;1.80;;
6346;SDS011;3206;42.666;23.600;2023-10-13T13:01:08;4.82;;;1.58;;
6346;SDS011;3206;42.666;23.600;2023-10-13T13:03:38;7.55;;;3.03;;
6346;SDS011;3206;42.666;23.600;2023-10-13T13:06:15;5.22;;;2.60;;
6346;SDS011;3206;42.666;23.600;2023-10-13T13:08:42;5.80;;;2.28;;
6346;SDS011;3206;42.666;23.600;2023-10-13T13:11:10;9.00;;;2.83;;
6346;SDS011;3206;42.666;23.600;2023-10-13T13:13:37;8.82;;;2.80;;
6346;SDS011;3206;42.666;23.600;2023-10-13T13:16:03;3.72;;;1.70;;
6346;SDS011;3206;42.666;23.600;2023-10-13T13:18:29;11.88;;;2.38;;
6346;SDS011;3206;42.666;23.600;2023-10-13T13:20:56;8.55;;;2.55;;
6346;SDS011;3206;42.666;23.600;2023-10-13T13:23:23;21.55;;;3.78;;
6346;SDS011;3206;42.666;23.600;2023-10-13T13:25:51;11.95;;;2.90;;
6346;SDS011;3206;42.666;23.600;2023-10-13T13:28:18;13.85;;;3.50;;
6346;SDS011;3206;42.666;23.600;2023-10-13T13:30:48;8.20;;;2.35;;
6346;SDS011;3206;42.666;23.600;2023-10-13T13:33:15;10.55;;;2.55;;
6346;SDS011;3206;42.666;23.600;2023-10-13T13:35:48;18.67;;;3.67;;
6346;SDS011;3206;42.666;23.600;2023-10-13T13:38:15;21.13;;;4.05;;
6346;SDS011;3206;42.666;23.600;2023-10-13T13:40:47;22.88;;;10.88;;
6346;SDS011;3206;42.666;23.600;2023-10-13T13:43:14;6.97;;;2.88;;
6346;SDS011;3206;42.666;23.600;2023-10-13T13:45:59;13.15;;;2.70;;
6346;SDS011;3206;42.666;23.600;2023-10-13T13:48:27;6.00;;;2.25;;
6346;SDS011;3206;42.666;23.600;2023-10-13T13:50:54;12.20;;;2.47;;
6346;SDS011;3206;42.666;23.600;2023-10-13T13:53:21;3.92;;;1.58;;
6346;SDS011;3206;42.666;23.600;2023-10-13T13:55:53;12.88;;;2.50;;
6346;SDS011;3206;42.666;23.600;2023-10-13T13:58:19;9.60;;;2.40;;
6346;SDS011;3206;42.666;23.600;2023-10-13T14:00:46;12.50;;;1.50;;
6346;SDS011;3206;42.666;23.600;2023-10-13T14:03:14;13.57;;;2.25;;
6346;SDS011;3206;42.666;23.600;2023-10-13T14:05:56;12.38;;;2.55;;
6346;SDS011;3206;42.666;23.600;2023-10-13T14:08:24;10.73;;;1.80;;
6346;SDS011;3206;42.666;23.600;2023-10-13T14:10:50;10.10;;;1.90;;
6346;SDS011;3206;42.666;23.600;2023-10-13T14:13:34;12.57;;;2.17;;
6346;SDS011;3206;42.666;23.600;2023-10-13T14:16:14;15.27;;;2.33;;
6346;SDS011;3206;42.666;23.600;2023-10-13T14:18:43;3.72;;;1.20;;
6346;SDS011;3206;42.666;23.600;2023-10-13T14:21:10;12.52;;;2.65;;
6346;SDS011;3206;42.666;23.600;2023-10-13T14:23:41;7.00;;;1.42;;
6346;SDS011;3206;42.666;23.600;2023-10-13T14:26:11;8.20;;;1.77;;
6346;SDS011;3206;42.666;23.600;2023-10-13T14:28:37;11.02;;;2.53;;
6346;SDS011;3206;42.666;23.600;2023-10-13T14:31:15;4.95;;;1.83;;
6346;SDS011;3206;42.666;23.600;2023-10-13T14:33:41;14.40;;;2.42;;
6346;SDS011;3206;42.666;23.600;2023-10-13T14:36:10;3.63;;;1.50;;
6346;SDS011;3206;42.666;23.600;2023-10-13T14:38:37;7.30;;;2.58;;
6346;SDS011;3206;42.666;23.600;2023-10-13T14:41:03;2.28;;;1.10;;
6346;SDS011;3206;42.666;23.600;2023-10-13T14:43:33;2.85;;;1.38;;
6346;SDS011;3206;42.666;23.600;2023-10-13T14:46:00;3.45;;;1.55;;
6346;SDS011;3206;42.666;23.600;2023-10-13T14:48:26;3.30;;;1.85;;
6346;SDS011;3206;42.666;23.600;2023-10-13T14:50:53;5.50;;;2.70;;
6346;SDS011;3206;42.666;23.600;2023-10-13T14:53:20;3.05;;;1.88;;
6346;SDS011;3206;42.666;23.600;2023-10-13T14:55:47;2.20;;;1.35;;
6346;SDS011;3206;42.666;23.600;2023-10-13T14:58:13;3.15;;;1.70;;
6346;SDS011;3206;42.666;23.600;2023-10-13T15:00:41;4.18;;;1.73;;
6346;SDS011;3206;42.666;23.600;2023-10-13T15:03:10;3.90;;;1.67;;
6346;SDS011;3206;42.666;23.600;2023-10-13T15:05:37;4.13;;;1.98;;
6346;SDS011;3206;42.666;23.600;2023-10-13T15:08:04;5.47;;;2.40;;
6346;SDS011;3206;42.666;23.600;2023-10-13T15:10:32;2.88;;;1.70;;
6346;SDS011;3206;42.666;23.600;2023-10-13T15:13:01;3.13;;;1.63;;
6346;SDS011;3206;42.666;23.600;2023-10-13T15:15:27;3.13;;;1.50;;
6346;SDS011;3206;42.666;23.600;2023-10-13T15:17:57;2.05;;;1.45;;
6346;SDS011;3206;42.666;23.600;2023-10-13T15:20:23;1.33;;;1.08;;
6346;SDS011;3206;42.666;23.600;2023-10-13T15:22:49;1.80;;;1.48;;
6346;SDS011;3206;42.666;23.600;2023-10-13T15:25:24;2.63;;;1.58;;
6346;SDS011;3206;42.666;23.600;2023-10-13T15:27:58;2.60;;;1.90;;
6346;SDS011;3206;42.666;23.600;2023-10-13T15:30:27;2.42;;;1.75;;
6346;SDS011;3206;42.666;23.600;2023-10-13T15:33:07;2.83;;;1.70;;